sensor_id;sensor_type;location;lat;lon;timestamp;pressure;altitude;pressure_sealevel;temperature;humidity
26563;BME280;14217;50.986;5.826;2023-04-01T00:04:58;98722.91;;;19.39;47.02
26563;BME280;14217;50.986;5.826;2023-04-01T00:10:00;98736.91;;;19.41;46.85
26563;BME280;14217;50.986;5.826;2023-04-01T00:15:03;98724.63;;;19.40;46.73
26563;BME280;14217;50.986;5.826;2023-04-01T00:20:06;98737.16;;;19.38;47.04
26563;BME280;14217;50.986;5.826;2023-04-01T00:25:09;98728.94;;;19.41;46.84
26563;BME280;14217;50.986;5.826;2023-04-01T00:30:11;98736.44;;;19.36;46.93
26563;BME280;14217;50.986;5.826;2023-04-01T00:35:13;98738.97;;;19.37;46.84
26563;BME280;14217;50.986;5.826;2023-04-01T00:40:28;98734.50;;;19.38;46.74
26563;BME280;14217;50.986;5.826;2023-04-01T00:45:34;98726.53;;;19.38;46.93
26563;BME280;14217;50.986;5.826;2023-04-01T00:50:37;98730.28;;;19.35;46.82
26563;BME280;14217;50.986;5.826;2023-04-01T00:55:45;98735.47;;;19.37;46.51
26563;BME280;14217;50.986;5.826;2023-04-01T01:00:51;98730.88;;;19.39;46.56
26563;BME280;14217;50.986;5.826;2023-04-01T01:06:10;98742.00;;;19.33;46.60
26563;BME280;14217;50.986;5.826;2023-04-01T01:11:14;98733.66;;;19.37;46.49
26563;BME280;14217;50.986;5.826;2023-04-01T01:16:29;98729.44;;;19.35;46.59
26563;BME280;14217;50.986;5.826;2023-04-01T01:21:37;98730.88;;;19.39;46.74
26563;BME280;14217;50.986;5.826;2023-04-01T01:27:16;98721.97;;;19.40;46.49
26563;BME280;14217;50.986;5.826;2023-04-01T01:32:38;98721.34;;;19.36;46.53
26563;BME280;14217;50.986;5.826;2023-04-01T01:37:45;98725.56;;;19.39;46.45
26563;BME280;14217;50.986;5.826;2023-04-01T01:42:52;98730.16;;;19.37;46.73
26563;BME280;14217;50.986;5.826;2023-04-01T01:47:55;98730.03;;;19.38;46.62
26563;BME280;14217;50.986;5.826;2023-04-01T01:53:05;98733.91;;;19.34;46.76
26563;BME280;14217;50.986;5.826;2023-04-01T02:03:27;98742.34;;;19.39;46.24
26563;BME280;14217;50.986;5.826;2023-04-01T02:08:42;98735.34;;;19.38;46.48
26563;BME280;14217;50.986;5.826;2023-04-01T02:14:00;98749.72;;;19.36;46.45
26563;BME280;14217;50.986;5.826;2023-04-01T02:19:05;98747.91;;;19.36;46.63
26563;BME280;14217;50.986;5.826;2023-04-01T02:24:12;98754.16;;;19.35;46.69
26563;BME280;14217;50.986;5.826;2023-04-01T02:29:17;98759.47;;;19.35;46.68
26563;BME280;14217;50.986;5.826;2023-04-01T02:34:21;98767.31;;;19.37;46.63
26563;BME280;14217;50.986;5.826;2023-04-01T02:39:24;98757.44;;;19.39;46.25
26563;BME280;14217;50.986;5.826;2023-04-01T02:44:28;98764.66;;;19.37;46.26
26563;BME280;14217;50.986;5.826;2023-04-01T02:49:30;98757.69;;;19.36;46.38
26563;BME280;14217;50.986;5.826;2023-04-01T02:54:32;98769.16;;;19.36;46.37
26563;BME280;14217;50.986;5.826;2023-04-01T02:59:34;98769.88;;;19.38;46.38
26563;BME280;14217;50.986;5.826;2023-04-01T03:04:36;98769.16;;;19.36;46.48
26563;BME280;14217;50.986;5.826;2023-04-01T03:09:38;98774.47;;;19.36;46.24
26563;BME280;14217;50.986;5.826;2023-04-01T03:14:41;98782.53;;;19.35;46.45
26563;BME280;14217;50.986;5.826;2023-04-01T03:19:43;98782.16;;;19.39;46.50
26563;BME280;14217;50.986;5.826;2023-04-01T03:24:45;98793.66;;;19.40;46.34
26563;BME280;14217;50.986;5.826;2023-04-01T03:29:50;98789.56;;;19.36;46.34
26563;BME280;14217;50.986;5.826;2023-04-01T03:34:52;98788.19;;;19.41;46.30
26563;BME280;14217;50.986;5.826;2023-04-01T03:39:54;98795.59;;;19.38;46.15
26563;BME280;14217;50.986;5.826;2023-04-01T03:44:56;98790.28;;;19.38;46.43
26563;BME280;14217;50.986;5.826;2023-04-01T03:49:58;98803.56;;;19.38;46.43
26563;BME280;14217;50.986;5.826;2023-04-01T03:55:01;98806.44;;;19.35;46.11
26563;BME280;14217;50.986;5.826;2023-04-01T04:00:04;98801.84;;;19.37;46.40
26563;BME280;14217;50.986;5.826;2023-04-01T04:05:06;98806.06;;;19.39;46.04
26563;BME280;14217;50.986;5.826;2023-04-01T04:10:08;98822.88;;;19.40;46.17
26563;BME280;14217;50.986;5.826;2023-04-01T04:15:11;98822.25;;;19.36;46.34
26563;BME280;14217;50.986;5.826;2023-04-01T04:20:13;98825.03;;;19.35;46.26
26563;BME280;14217;50.986;5.826;2023-04-01T04:25:15;98829.25;;;19.37;46.21
26563;BME280;14217;50.986;5.826;2023-04-01T04:30:17;98828.16;;;19.40;45.87
26563;BME280;14217;50.986;5.826;2023-04-01T04:35:19;98837.09;;;19.39;46.09
26563;BME280;14217;50.986;5.826;2023-04-01T04:40:21;98841.56;;;19.38;46.01
26563;BME280;14217;50.986;5.826;2023-04-01T04:45:23;98844.94;;;19.40;46.04
26563;BME280;14217;50.986;5.826;2023-04-01T04:50:25;98851.09;;;19.41;45.87
26563;BME280;14217;50.986;5.826;2023-04-01T04:55:27;98854.84;;;19.38;46.19
26563;BME280;14217;50.986;5.826;2023-04-01T05:00:29;98854.72;;;19.40;46.13
26563;BME280;14217;50.986;5.826;2023-04-01T05:05:32;98868.34;;;19.35;45.94
26563;BME280;14217;50.986;5.826;2023-04-01T05:10:34;98863.03;;;19.35;45.99
26563;BME280;14217;50.986;5.826;2023-04-01T05:15:37;98868.22;;;19.37;46.20
26563;BME280;14217;50.986;5.826;2023-04-01T05:20:39;98873.53;;;19.37;45.87
26563;BME280;14217;50.986;5.826;2023-04-01T05:25:41;98876.91;;;19.39;45.92
26563;BME280;14217;50.986;5.826;2023-04-01T05:30:44;98888.53;;;19.38;46.07
26563;BME280;14217;50.986;5.826;2023-04-01T05:35:46;98886.94;;;19.35;45.85
26563;BME280;14217;50.986;5.826;2023-04-01T05:40:48;98891.03;;;19.39;46.04
26563;BME280;14217;50.986;5.826;2023-04-01T05:45:50;98896.59;;;19.36;45.79
26563;BME280;14217;50.986;5.826;2023-04-01T05:50:52;98908.91;;;19.37;45.86
26563;BME280;14217;50.986;5.826;2023-04-01T05:55:54;98907.34;;;19.35;46.20
26563;BME280;14217;50.986;5.826;2023-04-01T06:01:07;98903.72;;;19.36;46.15
26563;BME280;14217;50.986;5.826;2023-04-01T06:06:27;98919.66;;;19.36;45.80
26563;BME280;14217;50.986;5.826;2023-04-01T06:22:27;98933.88;;;19.35;45.77
26563;BME280;14217;50.986;5.826;2023-04-01T06:44:23;98946.56;;;19.31;46.12
26563;BME280;14217;50.986;5.826;2023-04-01T06:54:48;98964.81;;;19.36;45.68
26563;BME280;14217;50.986;5.826;2023-04-01T06:59:55;98978.56;;;19.29;46.01
26563;BME280;14217;50.986;5.826;2023-04-01T07:05:00;98983.41;;;19.36;46.03
26563;BME280;14217;50.986;5.826;2023-04-01T07:10:09;98994.97;;;19.35;46.14
26563;BME280;14217;50.986;5.826;2023-04-01T07:15:17;99001.72;;;19.39;46.26
26563;BME280;14217;50.986;5.826;2023-04-01T07:20:24;99007.28;;;19.36;46.09
26563;BME280;14217;50.986;5.826;2023-04-01T07:25:35;99001.38;;;19.32;46.13
26563;BME280;14217;50.986;5.826;2023-04-01T07:47:10;99032.97;;;19.35;46.46
26563;BME280;14217;50.986;5.826;2023-04-01T07:57:21;99058.69;;;19.35;46.45
26563;BME280;14217;50.986;5.826;2023-04-01T08:02:37;99064.84;;;19.35;46.46
26563;BME280;14217;50.986;5.826;2023-04-01T08:08:02;99074.00;;;19.31;46.43
26563;BME280;14217;50.986;5.826;2023-04-01T08:23:37;99104.16;;;19.19;49.03
26563;BME280;14217;50.986;5.826;2023-04-01T08:29:31;99106.28;;;19.14;48.96
26563;BME280;14217;50.986;5.826;2023-04-01T08:34:39;99112.41;;;19.27;48.54
26563;BME280;14217;50.986;5.826;2023-04-01T08:39:46;99110.78;;;19.24;48.50
26563;BME280;14217;50.986;5.826;2023-04-01T09:01:16;99142.91;;;19.21;48.52
26563;BME280;14217;50.986;5.826;2023-04-01T09:34:36;99183.56;;;19.22;49.45
26563;BME280;14217;50.986;5.826;2023-04-01T09:51:01;99190.06;;;19.18;49.70
26563;BME280;14217;50.986;5.826;2023-04-01T09:56:36;99204.16;;;19.18;49.66
26563;BME280;14217;50.986;5.826;2023-04-01T10:02:08;99209.66;;;19.28;49.04
26563;BME280;14217;50.986;5.826;2023-04-01T10:07:45;99213.16;;;19.28;48.76
26563;BME280;14217;50.986;5.826;2023-04-01T10:13:17;99221.13;;;19.28;48.64
26563;BME280;14217;50.986;5.826;2023-04-01T10:29:20;99233.16;;;19.21;48.92
26563;BME280;14217;50.986;5.826;2023-04-01T11:12:11;99259.88;;;19.31;47.55
26563;BME280;14217;50.986;5.826;2023-04-01T11:33:34;99281.75;;;19.35;49.18
26563;BME280;14217;50.986;5.826;2023-04-01T11:44:20;99274.03;;;19.32;49.26
26563;BME280;14217;50.986;5.826;2023-04-01T11:50:21;99280.28;;;19.30;49.77
26563;BME280;14217;50.986;5.826;2023-04-01T11:55:32;99290.16;;;19.28;49.70
26563;BME280;14217;50.986;5.826;2023-04-01T12:06:25;99311.41;;;19.28;50.21
26563;BME280;14217;50.986;5.826;2023-04-01T12:11:49;99323.06;;;19.39;49.89
26563;BME280;14217;50.986;5.826;2023-04-01T12:17:21;99334.00;;;19.47;50.45
26563;BME280;14217;50.986;5.826;2023-04-01T12:22:49;99334.44;;;19.41;50.65
26563;BME280;14217;50.986;5.826;2023-04-01T12:44:29;99352.34;;;19.50;50.33
26563;BME280;14217;50.986;5.826;2023-04-01T13:17:15;99384.66;;;19.57;50.38
26563;BME280;14217;50.986;5.826;2023-04-01T13:28:01;99394.94;;;19.61;50.23
26563;BME280;14217;50.986;5.826;2023-04-01T13:43:43;99408.88;;;19.65;50.12
26563;BME280;14217;50.986;5.826;2023-04-01T13:54:55;99416.41;;;19.58;49.97
26563;BME280;14217;50.986;5.826;2023-04-01T14:00:19;99434.69;;;19.63;49.88
26563;BME280;14217;50.986;5.826;2023-04-01T14:10:56;99440.94;;;19.62;50.01
26563;BME280;14217;50.986;5.826;2023-04-01T14:21:41;99444.44;;;19.62;50.29
26563;BME280;14217;50.986;5.826;2023-04-01T14:32:14;99453.06;;;19.66;50.68
26563;BME280;14217;50.986;5.826;2023-04-01T14:47:43;99474.75;;;19.60;49.74
26563;BME280;14217;50.986;5.826;2023-04-01T14:58:16;99488.38;;;19.55;49.55
26563;BME280;14217;50.986;5.826;2023-04-01T15:14:40;99491.44;;;19.49;48.94
26563;BME280;14217;50.986;5.826;2023-04-01T15:20:10;99493.47;;;19.45;49.17
26563;BME280;14217;50.986;5.826;2023-04-01T15:25:39;99496.03;;;19.47;48.76
26563;BME280;14217;50.986;5.826;2023-04-01T15:36:38;99519.41;;;19.42;48.26
26563;BME280;14217;50.986;5.826;2023-04-01T15:46:58;99525.66;;;19.41;47.98
26563;BME280;14217;50.986;5.826;2023-04-01T15:52:16;99534.47;;;19.41;47.95
26563;BME280;14217;50.986;5.826;2023-04-01T16:19:36;99560.19;;;19.41;47.57
26563;BME280;14217;50.986;5.826;2023-04-01T16:24:51;99562.00;;;19.40;47.62
26563;BME280;14217;50.986;5.826;2023-04-01T16:35:43;99574.72;;;19.35;47.31
26563;BME280;14217;50.986;5.826;2023-04-01T16:51:17;99593.03;;;19.40;47.07
26563;BME280;14217;50.986;5.826;2023-04-01T16:56:25;99596.53;;;19.40;47.00
26563;BME280;14217;50.986;5.826;2023-04-01T17:23:51;99642.84;;;19.36;47.49
26563;BME280;14217;50.986;5.826;2023-04-01T17:40:20;99653.38;;;19.38;46.85
26563;BME280;14217;50.986;5.826;2023-04-01T18:07:30;99686.09;;;19.38;46.57
26563;BME280;14217;50.986;5.826;2023-04-01T18:35:02;99719.97;;;19.35;46.64
26563;BME280;14217;50.986;5.826;2023-04-01T18:40:27;99733.69;;;19.41;46.44
26563;BME280;14217;50.986;5.826;2023-04-01T18:45:50;99743.47;;;19.41;46.42
26563;BME280;14217;50.986;5.826;2023-04-01T18:51:01;99745.19;;;19.42;46.41
26563;BME280;14217;50.986;5.826;2023-04-01T18:56:07;99754.09;;;19.41;46.18
26563;BME280;14217;50.986;5.826;2023-04-01T19:01:23;99756.38;;;19.33;46.60
26563;BME280;14217;50.986;5.826;2023-04-01T19:11:41;99764.06;;;19.37;46.42
26563;BME280;14217;50.986;5.826;2023-04-01T19:17:08;99775.56;;;19.38;46.22
26563;BME280;14217;50.986;5.826;2023-04-01T19:22:30;99768.44;;;19.38;46.54
26563;BME280;14217;50.986;5.826;2023-04-01T19:27:49;99785.59;;;19.33;46.57
26563;BME280;14217;50.986;5.826;2023-04-01T19:38:32;99792.34;;;19.38;46.31
26563;BME280;14217;50.986;5.826;2023-04-01T19:55:03;99804.19;;;19.33;46.41
26563;BME280;14217;50.986;5.826;2023-04-01T20:05:46;99826.03;;;19.38;46.77
26563;BME280;14217;50.986;5.826;2023-04-01T20:16:12;99844.63;;;19.38;47.01
26563;BME280;14217;50.986;5.826;2023-04-01T20:21:36;99856.47;;;19.32;46.99
26563;BME280;14217;50.986;5.826;2023-04-01T20:26:51;99866.88;;;19.35;46.85
26563;BME280;14217;50.986;5.826;2023-04-01T20:37:35;99885.47;;;19.35;47.29
26563;BME280;14217;50.986;5.826;2023-04-01T20:43:06;99887.28;;;19.35;47.05
26563;BME280;14217;50.986;5.826;2023-04-01T21:10:41;99937.00;;;19.33;47.27
26563;BME280;14217;50.986;5.826;2023-04-01T21:21:41;99951.03;;;19.35;47.80
26563;BME280;14217;50.986;5.826;2023-04-01T22:05:29;100030.72;;;19.35;49.97
26563;BME280;14217;50.986;5.826;2023-04-01T22:10:43;100040.22;;;19.39;49.42
26563;BME280;14217;50.986;5.826;2023-04-01T22:21:29;100061.53;;;19.37;49.20
26563;BME280;14217;50.986;5.826;2023-04-01T22:26:44;100070.56;;;19.35;49.19
26563;BME280;14217;50.986;5.826;2023-04-01T22:31:53;100081.78;;;19.40;49.00
26563;BME280;14217;50.986;5.826;2023-04-01T22:37:11;100086.69;;;19.32;49.05
26563;BME280;14217;50.986;5.826;2023-04-01T22:53:50;100114.03;;;19.34;48.91
26563;BME280;14217;50.986;5.826;2023-04-01T22:58:40;100128.06;;;19.36;48.77
26563;BME280;14217;50.986;5.826;2023-04-01T23:03:45;100144.66;;;19.39;48.63
26563;BME280;14217;50.986;5.826;2023-04-01T23:29:57;100190.09;;;19.35;48.47
26563;BME280;14217;50.986;5.826;2023-04-01T23:34:59;100199.88;;;19.34;48.53
26563;BME280;14217;50.986;5.826;2023-04-01T23:40:01;100214.78;;;19.37;48.14
26563;BME280;14217;50.986;5.826;2023-04-01T23:45:15;100215.81;;;19.34;48.35
26563;BME280;14217;50.986;5.826;2023-04-01T23:50:24;100229.09;;;19.34;48.31
26563;BME280;14217;50.986;5.826;2023-04-01T23:55:32;100239.03;;;19.30;48.32
